ENAX weather

Ålesund Heliport, Hospital
Ålesund, Møre og Romsdal, Norway

Public forecast

Using degrees Celsius for public forecast. Weather courtesy of forecast.io.

METAR (pilot weather report)

Closest report is Ålesund Airport, 8.0 nm (14.8 km) NW. Retrieved 2019/07/18 14:20 UTC (13 minutes ago):

ENAL 181420Z 28006KT 240V310 CAVOK 16/12 Q1006

TAF (pilot weather forecast)

Forecast is more than 12 hours old.

Closest forecast is Molde Airport, 31.2 nm (57.8 km) ENE. Retrieved 2011/03/08 08:45 UTC (8 years ago):

TAF TAF ESDF 0808 FCNO33 ENMI 080800 RRC TAF ENML 080800Z 0809/0818 21015KT 9999 FEW030 BKN050 TEMPO 0809/0818 21022G35KT BECMG 0815/0818 21022G35KT TEMPO 0815/0818 4000 RADZ BKN012